HVN9999 VVNB-VVTS
Flight info
| Callsign | HVN9999 |
|---|---|
| Flight time | 1h 44m |
| Altitude | 36000 |
| Route | NAH3A NAH Q1 DOVIN DOVI5E |
| Aircraft | A20N/M-SDE2E3FGHIRWXY/LB1 |
Departure
| Time | 2026-05-08 08:14 |
|---|---|
| Airport | Noi Bai International Airport (VVNB) |
Arrival
| Time | 2026-05-08 09:59 |
|---|---|
| Airport | Tan Son Nhat International Airport (VVTS) |
| Time | Latitude | Longitude | Altitude | Speed | Heading |
|---|---|---|---|---|---|
| 2026-05-08 08:00 | 21.22030 | 105.78808 | 48 ft | 0 kts | 199° |
| 2026-05-08 08:05 | 21.22037 | 105.78811 | 48 ft | 2 kts | 196° |
| 2026-05-08 08:06 | 21.22053 | 105.78816 | 44 ft | 2 kts | 199° |
| 2026-05-08 08:06 | 21.22069 | 105.78822 | 47 ft | 2 kts | 200° |
| 2026-05-08 08:06 | 21.22084 | 105.78828 | 43 ft | 2 kts | 200° |
| 2026-05-08 08:06 | 21.22100 | 105.78834 | 44 ft | 2 kts | 201° |
| 2026-05-08 08:07 | 21.22115 | 105.78841 | 45 ft | 2 kts | 203° |
| 2026-05-08 08:07 | 21.22130 | 105.78848 | 47 ft | 2 kts | 210° |
| 2026-05-08 08:07 | 21.22143 | 105.78859 | 47 ft | 2 kts | 254° |
| 2026-05-08 08:07 | 21.22144 | 105.78870 | 46 ft | 1 kts | 287° |
| 2026-05-08 08:08 | 21.22144 | 105.78871 | 42 ft | 0 kts | 287° |
| 2026-05-08 08:09 | 21.22145 | 105.78866 | 70 ft | 2 kts | 288° |
| 2026-05-08 08:10 | 21.22154 | 105.78838 | 46 ft | 6 kts | 288° |
| 2026-05-08 08:10 | 21.22169 | 105.78786 | 46 ft | 9 kts | 288° |
| 2026-05-08 08:10 | 21.22191 | 105.78712 | 48 ft | 12 kts | 287° |
| 2026-05-08 08:10 | 21.22230 | 105.78626 | 48 ft | 12 kts | 298° |
| 2026-05-08 08:11 | 21.22281 | 105.78583 | 48 ft | 9 kts | 8° |
| 2026-05-08 08:11 | 21.22346 | 105.78607 | 49 ft | 11 kts | 19° |
| 2026-05-08 08:11 | 21.22400 | 105.78627 | 49 ft | 0 kts | 19° |
| 2026-05-08 08:11 | 21.22411 | 105.78631 | 49 ft | 3 kts | 19° |
| 2026-05-08 08:12 | 21.22438 | 105.78641 | 49 ft | 5 kts | 20° |
| 2026-05-08 08:12 | 21.22465 | 105.78667 | 49 ft | 5 kts | 85° |
| 2026-05-08 08:12 | 21.22456 | 105.78714 | 49 ft | 5 kts | 106° |
| 2026-05-08 08:12 | 21.22456 | 105.78715 | 49 ft | 0 kts | 106° |
| 2026-05-08 08:13 | 21.22456 | 105.78716 | 49 ft | 1 kts | 106° |
| 2026-05-08 08:13 | 21.22399 | 105.78916 | 50 ft | 63 kts | 107° |
| 2026-05-08 08:14 | 21.22202 | 105.79587 | 46 ft | 123 kts | 107° |
| 2026-05-08 08:14 | 21.21900 | 105.80616 | 101 ft | 151 kts | 106° |
| 2026-05-08 08:14 | 21.21577 | 105.81627 | 456 ft | 149 kts | 107° |
| 2026-05-08 08:14 | 21.21246 | 105.82746 | 951 ft | 161 kts | 105° |
| 2026-05-08 08:15 | 21.20919 | 105.83908 | 1589 ft | 172 kts | 105° |
| 2026-05-08 08:15 | 21.20565 | 105.85183 | 2113 ft | 187 kts | 105° |
| 2026-05-08 08:15 | 21.20181 | 105.86597 | 2559 ft | 208 kts | 104° |
| 2026-05-08 08:15 | 21.19757 | 105.88172 | 3007 ft | 231 kts | 104° |
| 2026-05-08 08:16 | 21.19291 | 105.89901 | 3515 ft | 253 kts | 105° |
| 2026-05-08 08:16 | 21.18787 | 105.91765 | 3873 ft | 265 kts | 105° |
| 2026-05-08 08:16 | 21.18266 | 105.93677 | 4175 ft | 269 kts | 105° |
| 2026-05-08 08:16 | 21.17744 | 105.95592 | 4283 ft | 267 kts | 105° |
| 2026-05-08 08:17 | 21.17129 | 105.97473 | 4367 ft | 270 kts | 119° |
| 2026-05-08 08:17 | 21.15852 | 105.98952 | 4801 ft | 276 kts | 147° |
| 2026-05-08 08:17 | 21.14055 | 105.99645 | 5760 ft | 276 kts | 170° |
| 2026-05-08 08:17 | 21.12142 | 105.99955 | 6652 ft | 279 kts | 171° |
| 2026-05-08 08:18 | 21.10210 | 106.00253 | 7479 ft | 282 kts | 172° |
| 2026-05-08 08:18 | 21.08256 | 106.00551 | 8304 ft | 285 kts | 172° |
| 2026-05-08 08:18 | 21.06280 | 106.00852 | 9117 ft | 289 kts | 172° |
| 2026-05-08 08:18 | 21.04303 | 106.01154 | 9926 ft | 291 kts | 172° |
| 2026-05-08 08:19 | 21.02252 | 106.01468 | 10377 ft | 308 kts | 172° |
| 2026-05-08 08:19 | 21.00050 | 106.01805 | 10578 ft | 331 kts | 172° |
| 2026-05-08 08:19 | 20.97705 | 106.02164 | 10930 ft | 346 kts | 172° |
| 2026-05-08 08:19 | 20.95309 | 106.02531 | 11606 ft | 350 kts | 172° |
| 2026-05-08 08:20 | 20.92887 | 106.02901 | 12270 ft | 354 kts | 172° |
| 2026-05-08 08:20 | 20.90434 | 106.03277 | 12937 ft | 358 kts | 172° |
| 2026-05-08 08:20 | 20.87943 | 106.03657 | 13591 ft | 363 kts | 172° |
| 2026-05-08 08:20 | 20.85430 | 106.04041 | 14176 ft | 367 kts | 172° |
| 2026-05-08 08:21 | 20.82885 | 106.04430 | 14739 ft | 371 kts | 172° |
| 2026-05-08 08:21 | 20.80309 | 106.04824 | 15296 ft | 375 kts | 172° |
| 2026-05-08 08:21 | 20.77704 | 106.05222 | 15736 ft | 379 kts | 172° |
| 2026-05-08 08:21 | 20.75088 | 106.05621 | 15885 ft | 380 kts | 172° |
| 2026-05-08 08:22 | 20.72459 | 106.06022 | 16080 ft | 384 kts | 172° |
| 2026-05-08 08:22 | 20.69841 | 106.06421 | 16684 ft | 385 kts | 172° |
| 2026-05-08 08:22 | 20.67176 | 106.06828 | 17236 ft | 388 kts | 172° |
| 2026-05-08 08:22 | 20.64483 | 106.07238 | 17763 ft | 392 kts | 172° |
| 2026-05-08 08:23 | 20.61768 | 106.07651 | 18271 ft | 396 kts | 172° |
| 2026-05-08 08:23 | 20.59025 | 106.08069 | 18749 ft | 398 kts | 172° |
| 2026-05-08 08:23 | 20.56265 | 106.08497 | 19234 ft | 401 kts | 171° |
| 2026-05-08 08:23 | 20.53505 | 106.08993 | 19714 ft | 403 kts | 170° |
| 2026-05-08 08:24 | 20.50728 | 106.09523 | 20186 ft | 406 kts | 170° |
| 2026-05-08 08:24 | 20.47940 | 106.10056 | 20644 ft | 408 kts | 170° |
| 2026-05-08 08:24 | 20.45169 | 106.10579 | 21101 ft | 411 kts | 170° |
| 2026-05-08 08:24 | 20.42344 | 106.11107 | 21550 ft | 413 kts | 170° |
| 2026-05-08 08:25 | 20.39521 | 106.11745 | 22007 ft | 416 kts | 165° |
| 2026-05-08 08:25 | 20.36776 | 106.12752 | 22462 ft | 419 kts | 157° |
| 2026-05-08 08:25 | 20.34121 | 106.14066 | 22877 ft | 422 kts | 155° |
| 2026-05-08 08:25 | 20.31450 | 106.15414 | 23302 ft | 424 kts | 155° |
| 2026-05-08 08:26 | 20.28768 | 106.16760 | 23680 ft | 427 kts | 155° |
| 2026-05-08 08:26 | 20.26070 | 106.18109 | 24043 ft | 429 kts | 155° |
| 2026-05-08 08:26 | 20.23357 | 106.19465 | 24397 ft | 431 kts | 155° |
| 2026-05-08 08:26 | 20.20669 | 106.20808 | 24736 ft | 433 kts | 155° |
| 2026-05-08 08:27 | 20.17936 | 106.22172 | 25065 ft | 436 kts | 155° |
| 2026-05-08 08:27 | 20.15204 | 106.23536 | 25390 ft | 438 kts | 155° |
| 2026-05-08 08:27 | 20.12412 | 106.24930 | 25723 ft | 440 kts | 155° |
| 2026-05-08 08:27 | 20.09630 | 106.26317 | 26034 ft | 442 kts | 155° |
| 2026-05-08 08:28 | 20.06834 | 106.27711 | 26338 ft | 445 kts | 155° |
| 2026-05-08 08:28 | 20.04026 | 106.29111 | 26647 ft | 447 kts | 155° |
| 2026-05-08 08:28 | 20.01203 | 106.30517 | 26936 ft | 449 kts | 155° |
| 2026-05-08 08:28 | 19.98365 | 106.31931 | 27235 ft | 451 kts | 155° |
| 2026-05-08 08:29 | 19.95517 | 106.33349 | 27519 ft | 453 kts | 155° |
| 2026-05-08 08:29 | 19.92648 | 106.34777 | 27796 ft | 456 kts | 155° |
| 2026-05-08 08:29 | 19.89766 | 106.36210 | 28069 ft | 458 kts | 155° |
| 2026-05-08 08:29 | 19.86876 | 106.37647 | 28337 ft | 460 kts | 155° |
| 2026-05-08 08:30 | 19.84008 | 106.39073 | 28595 ft | 462 kts | 155° |
| 2026-05-08 08:30 | 19.81091 | 106.40522 | 28839 ft | 464 kts | 155° |
| 2026-05-08 08:30 | 19.75220 | 106.43437 | 29335 ft | 468 kts | 155° |
| 2026-05-08 08:31 | 19.72264 | 106.44904 | 29571 ft | 470 kts | 155° |
| 2026-05-08 08:31 | 19.69297 | 106.46376 | 29806 ft | 472 kts | 155° |
| 2026-05-08 08:31 | 19.66315 | 106.47855 | 30027 ft | 474 kts | 155° |
| 2026-05-08 08:31 | 19.63319 | 106.49339 | 30244 ft | 476 kts | 155° |
| 2026-05-08 08:32 | 19.60316 | 106.50827 | 30448 ft | 477 kts | 155° |
| 2026-05-08 08:32 | 19.57303 | 106.52319 | 30652 ft | 479 kts | 155° |
| 2026-05-08 08:32 | 19.54274 | 106.53818 | 30871 ft | 481 kts | 155° |
| 2026-05-08 08:32 | 19.51231 | 106.55324 | 31128 ft | 481 kts | 156° |
| 2026-05-08 08:33 | 19.48198 | 106.56825 | 31440 ft | 480 kts | 156° |
| 2026-05-08 08:33 | 19.45205 | 106.58304 | 31727 ft | 480 kts | 156° |
| 2026-05-08 08:33 | 19.42179 | 106.59800 | 32026 ft | 479 kts | 156° |
| 2026-05-08 08:33 | 19.39160 | 106.61292 | 32309 ft | 478 kts | 156° |
| 2026-05-08 08:34 | 19.36140 | 106.62783 | 32596 ft | 478 kts | 156° |
| 2026-05-08 08:34 | 19.33128 | 106.64270 | 32884 ft | 477 kts | 156° |
| 2026-05-08 08:34 | 19.30125 | 106.65752 | 33160 ft | 476 kts | 156° |
| 2026-05-08 08:34 | 19.27116 | 106.67235 | 33432 ft | 475 kts | 156° |
| 2026-05-08 08:35 | 19.24122 | 106.68711 | 33707 ft | 474 kts | 156° |
| 2026-05-08 08:35 | 19.21127 | 106.70179 | 33959 ft | 474 kts | 156° |
| 2026-05-08 08:35 | 19.18120 | 106.71599 | 34176 ft | 473 kts | 157° |
| 2026-05-08 08:35 | 19.15108 | 106.72999 | 34365 ft | 473 kts | 157° |
| 2026-05-08 08:36 | 19.12093 | 106.74399 | 34579 ft | 472 kts | 157° |
| 2026-05-08 08:36 | 19.09086 | 106.75800 | 34776 ft | 472 kts | 157° |
| 2026-05-08 08:36 | 19.06086 | 106.77201 | 34988 ft | 471 kts | 157° |
| 2026-05-08 08:36 | 19.03123 | 106.78587 | 35174 ft | 471 kts | 157° |
| 2026-05-08 08:37 | 19.00127 | 106.79989 | 35362 ft | 471 kts | 157° |
| 2026-05-08 08:37 | 18.97131 | 106.81391 | 35558 ft | 471 kts | 157° |
| 2026-05-08 08:37 | 18.94139 | 106.82791 | 35761 ft | 470 kts | 157° |
| 2026-05-08 08:37 | 18.91140 | 106.84193 | 35896 ft | 470 kts | 157° |
| 2026-05-08 08:38 | 18.85164 | 106.86985 | 35912 ft | 469 kts | 157° |
| 2026-05-08 08:38 | 18.79182 | 106.89776 | 35909 ft | 469 kts | 157° |
| 2026-05-08 08:39 | 18.73245 | 106.92541 | 35909 ft | 469 kts | 157° |
| 2026-05-08 08:39 | 18.67256 | 106.95328 | 35906 ft | 469 kts | 157° |
| 2026-05-08 08:40 | 18.61278 | 106.98109 | 35908 ft | 470 kts | 157° |
| 2026-05-08 08:40 | 18.55294 | 107.00891 | 35911 ft | 470 kts | 157° |
| 2026-05-08 08:41 | 18.49310 | 107.03670 | 35906 ft | 469 kts | 157° |
| 2026-05-08 08:41 | 18.43334 | 107.06445 | 35903 ft | 469 kts | 156° |
| 2026-05-08 08:42 | 18.37392 | 107.09207 | 35907 ft | 469 kts | 156° |
| 2026-05-08 08:42 | 18.31421 | 107.11981 | 35907 ft | 469 kts | 156° |
| 2026-05-08 08:43 | 18.25439 | 107.14756 | 35905 ft | 469 kts | 156° |
| 2026-05-08 08:43 | 18.19465 | 107.17527 | 35900 ft | 469 kts | 156° |
| 2026-05-08 08:44 | 18.13490 | 107.20295 | 35899 ft | 469 kts | 156° |
| 2026-05-08 08:44 | 18.07513 | 107.23062 | 35898 ft | 469 kts | 156° |
| 2026-05-08 08:45 | 18.01561 | 107.25866 | 35896 ft | 469 kts | 156° |
| 2026-05-08 08:45 | 17.95622 | 107.28702 | 35896 ft | 469 kts | 156° |
| 2026-05-08 08:46 | 17.89680 | 107.31530 | 35896 ft | 469 kts | 156° |
| 2026-05-08 08:46 | 17.83731 | 107.34353 | 35883 ft | 469 kts | 156° |
| 2026-05-08 08:47 | 17.77813 | 107.37159 | 35887 ft | 470 kts | 156° |
| 2026-05-08 08:47 | 17.71846 | 107.39987 | 35882 ft | 471 kts | 156° |
| 2026-05-08 08:48 | 17.65862 | 107.42820 | 35879 ft | 472 kts | 156° |
| 2026-05-08 08:48 | 17.59868 | 107.45655 | 35887 ft | 473 kts | 155° |
| 2026-05-08 08:49 | 17.53865 | 107.48494 | 35885 ft | 474 kts | 155° |
| 2026-05-08 08:49 | 17.47886 | 107.51318 | 35893 ft | 475 kts | 155° |
| 2026-05-08 08:50 | 17.41847 | 107.54169 | 35905 ft | 476 kts | 155° |
| 2026-05-08 08:50 | 17.36825 | 107.56538 | 35902 ft | 476 kts | 155° |
| 2026-05-08 08:51 | 17.30764 | 107.59395 | 35886 ft | 477 kts | 155° |
| 2026-05-08 08:51 | 17.24720 | 107.62243 | 35893 ft | 475 kts | 155° |
| 2026-05-08 08:52 | 17.18728 | 107.65064 | 35891 ft | 475 kts | 155° |
| 2026-05-08 08:52 | 17.12681 | 107.67909 | 35885 ft | 476 kts | 155° |
| 2026-05-08 08:53 | 17.06671 | 107.70809 | 35881 ft | 476 kts | 154° |
| 2026-05-08 08:53 | 17.00667 | 107.73741 | 35875 ft | 476 kts | 154° |
| 2026-05-08 08:54 | 16.94656 | 107.76662 | 35882 ft | 476 kts | 155° |
| 2026-05-08 08:54 | 16.88636 | 107.79580 | 35886 ft | 476 kts | 155° |
| 2026-05-08 08:55 | 16.82653 | 107.82478 | 35888 ft | 477 kts | 155° |
| 2026-05-08 08:55 | 16.76627 | 107.85394 | 35876 ft | 477 kts | 155° |
| 2026-05-08 08:56 | 16.70602 | 107.88308 | 35877 ft | 477 kts | 155° |
| 2026-05-08 08:56 | 16.64567 | 107.91229 | 35879 ft | 478 kts | 155° |
| 2026-05-08 08:57 | 16.58536 | 107.94151 | 35874 ft | 478 kts | 155° |
| 2026-05-08 08:57 | 16.52497 | 107.97073 | 35879 ft | 478 kts | 155° |
| 2026-05-08 08:58 | 16.46488 | 107.99974 | 35880 ft | 479 kts | 155° |
| 2026-05-08 08:58 | 16.40444 | 108.02889 | 35882 ft | 479 kts | 155° |
| 2026-05-08 08:59 | 16.34394 | 108.05805 | 35871 ft | 479 kts | 155° |
| 2026-05-08 08:59 | 16.28335 | 108.08724 | 35873 ft | 480 kts | 155° |
| 2026-05-08 09:00 | 16.22272 | 108.11642 | 35884 ft | 480 kts | 155° |
| 2026-05-08 09:00 | 16.16207 | 108.14561 | 35891 ft | 480 kts | 155° |
| 2026-05-08 09:01 | 16.10139 | 108.17464 | 35881 ft | 480 kts | 157° |
| 2026-05-08 09:01 | 16.03725 | 108.19370 | 35884 ft | 480 kts | 172° |
| 2026-05-08 09:02 | 15.97107 | 108.19648 | 35888 ft | 479 kts | 182° |
| 2026-05-08 09:02 | 15.90434 | 108.19492 | 35872 ft | 480 kts | 182° |
| 2026-05-08 09:03 | 15.83759 | 108.19350 | 35874 ft | 480 kts | 181° |
| 2026-05-08 09:03 | 15.77072 | 108.19207 | 35867 ft | 481 kts | 181° |
| 2026-05-08 09:04 | 15.70380 | 108.19063 | 35860 ft | 481 kts | 182° |
| 2026-05-08 09:04 | 15.63683 | 108.18918 | 35882 ft | 481 kts | 181° |
| 2026-05-08 09:05 | 15.57030 | 108.18775 | 35874 ft | 482 kts | 181° |
| 2026-05-08 09:05 | 15.50320 | 108.18630 | 35883 ft | 482 kts | 181° |
| 2026-05-08 09:06 | 15.43597 | 108.18485 | 35890 ft | 483 kts | 181° |
| 2026-05-08 09:06 | 15.36891 | 108.18341 | 35876 ft | 481 kts | 181° |
| 2026-05-08 09:07 | 15.30201 | 108.18197 | 35894 ft | 481 kts | 181° |
| 2026-05-08 09:07 | 15.23509 | 108.18054 | 35903 ft | 481 kts | 181° |
| 2026-05-08 09:08 | 15.16858 | 108.17911 | 35909 ft | 481 kts | 181° |
| 2026-05-08 09:08 | 15.10163 | 108.17767 | 35911 ft | 480 kts | 181° |
| 2026-05-08 09:09 | 15.03478 | 108.17622 | 35924 ft | 480 kts | 181° |
| 2026-05-08 09:09 | 14.96787 | 108.17473 | 35901 ft | 480 kts | 181° |
| 2026-05-08 09:10 | 14.90143 | 108.17326 | 35904 ft | 480 kts | 181° |
| 2026-05-08 09:10 | 14.83424 | 108.17177 | 35902 ft | 480 kts | 181° |
| 2026-05-08 09:11 | 14.76748 | 108.17030 | 35900 ft | 480 kts | 181° |
| 2026-05-08 09:11 | 14.70111 | 108.16884 | 35894 ft | 480 kts | 181° |
| 2026-05-08 09:12 | 14.63430 | 108.16736 | 35897 ft | 480 kts | 181° |
| 2026-05-08 09:12 | 14.58721 | 108.16633 | 35887 ft | 480 kts | 181° |
| 2026-05-08 09:13 | 14.52036 | 108.16485 | 35876 ft | 480 kts | 181° |
| 2026-05-08 09:13 | 14.45387 | 108.16339 | 35875 ft | 481 kts | 181° |
| 2026-05-08 09:14 | 14.38699 | 108.16192 | 35881 ft | 481 kts | 181° |
| 2026-05-08 09:14 | 14.32000 | 108.16045 | 35875 ft | 481 kts | 181° |
| 2026-05-08 09:15 | 14.25300 | 108.15898 | 35876 ft | 481 kts | 181° |
| 2026-05-08 09:15 | 14.18591 | 108.15755 | 35872 ft | 482 kts | 181° |
| 2026-05-08 09:16 | 14.11917 | 108.15613 | 35872 ft | 482 kts | 181° |
| 2026-05-08 09:16 | 14.05212 | 108.15470 | 35869 ft | 482 kts | 181° |
| 2026-05-08 09:17 | 13.98508 | 108.15327 | 35862 ft | 482 kts | 181° |
| 2026-05-08 09:17 | 13.91800 | 108.15180 | 35855 ft | 482 kts | 181° |
| 2026-05-08 09:18 | 13.85102 | 108.15032 | 35848 ft | 481 kts | 181° |
| 2026-05-08 09:18 | 13.78403 | 108.14885 | 35843 ft | 481 kts | 181° |
| 2026-05-08 09:19 | 13.71703 | 108.14738 | 35839 ft | 481 kts | 181° |
| 2026-05-08 09:19 | 13.65052 | 108.14593 | 35836 ft | 481 kts | 181° |
| 2026-05-08 09:20 | 13.58353 | 108.14446 | 35826 ft | 481 kts | 181° |
| 2026-05-08 09:20 | 13.51662 | 108.14300 | 35821 ft | 481 kts | 181° |
| 2026-05-08 09:21 | 13.44968 | 108.14154 | 35816 ft | 481 kts | 181° |
| 2026-05-08 09:23 | 13.21593 | 108.13617 | 35815 ft | 480 kts | 181° |
| 2026-05-08 09:23 | 13.14911 | 108.13455 | 35830 ft | 480 kts | 181° |
| 2026-05-08 09:24 | 13.08224 | 108.13295 | 35832 ft | 480 kts | 181° |
| 2026-05-08 09:24 | 13.01539 | 108.13135 | 35831 ft | 480 kts | 181° |
| 2026-05-08 09:25 | 12.94894 | 108.12975 | 35824 ft | 480 kts | 181° |
| 2026-05-08 09:25 | 12.88204 | 108.12815 | 35833 ft | 480 kts | 180° |
| 2026-05-08 09:26 | 12.81526 | 108.12655 | 35835 ft | 480 kts | 180° |
| 2026-05-08 09:26 | 12.74853 | 108.12495 | 35820 ft | 480 kts | 180° |
| 2026-05-08 09:27 | 12.68169 | 108.12335 | 35827 ft | 480 kts | 180° |
| 2026-05-08 09:27 | 12.61496 | 108.12189 | 35740 ft | 481 kts | 180° |
| 2026-05-08 09:27 | 12.58152 | 108.12124 | 35507 ft | 480 kts | 180° |
| 2026-05-08 09:28 | 12.54804 | 108.12060 | 35279 ft | 480 kts | 180° |
| 2026-05-08 09:28 | 12.51462 | 108.11994 | 35044 ft | 480 kts | 180° |
| 2026-05-08 09:28 | 12.48153 | 108.11929 | 34818 ft | 481 kts | 180° |
| 2026-05-08 09:28 | 12.44800 | 108.11862 | 34593 ft | 482 kts | 180° |
| 2026-05-08 09:29 | 12.41441 | 108.11795 | 34368 ft | 482 kts | 180° |
| 2026-05-08 09:29 | 12.38083 | 108.11728 | 34144 ft | 483 kts | 180° |
| 2026-05-08 09:29 | 12.34717 | 108.11661 | 33930 ft | 484 kts | 180° |
| 2026-05-08 09:29 | 12.31346 | 108.11594 | 33692 ft | 484 kts | 180° |
| 2026-05-08 09:30 | 12.27975 | 108.11527 | 33437 ft | 484 kts | 180° |
| 2026-05-08 09:30 | 12.24610 | 108.11460 | 33186 ft | 484 kts | 180° |
| 2026-05-08 09:30 | 12.21246 | 108.11393 | 32940 ft | 484 kts | 180° |
| 2026-05-08 09:30 | 12.17879 | 108.11326 | 32690 ft | 484 kts | 180° |
| 2026-05-08 09:31 | 12.14505 | 108.11259 | 32448 ft | 484 kts | 180° |
| 2026-05-08 09:31 | 12.11183 | 108.11193 | 32215 ft | 484 kts | 180° |
| 2026-05-08 09:31 | 12.07781 | 108.11126 | 31969 ft | 483 kts | 180° |
| 2026-05-08 09:31 | 12.04461 | 108.11060 | 31738 ft | 483 kts | 180° |
| 2026-05-08 09:32 | 12.01091 | 108.10993 | 31498 ft | 483 kts | 180° |
| 2026-05-08 09:32 | 11.97733 | 108.10926 | 31273 ft | 483 kts | 180° |
| 2026-05-08 09:32 | 11.94386 | 108.10642 | 30997 ft | 483 kts | 190° |
| 2026-05-08 09:32 | 11.91141 | 108.09726 | 30427 ft | 484 kts | 201° |
| 2026-05-08 09:33 | 11.88139 | 108.08177 | 29793 ft | 482 kts | 213° |
| 2026-05-08 09:33 | 11.85468 | 108.06146 | 29181 ft | 476 kts | 219° |
| 2026-05-08 09:33 | 11.82925 | 108.04017 | 28629 ft | 469 kts | 219° |
| 2026-05-08 09:33 | 11.80416 | 108.01909 | 28072 ft | 463 kts | 219° |
| 2026-05-08 09:34 | 11.77925 | 107.99853 | 27516 ft | 458 kts | 218° |
| 2026-05-08 09:34 | 11.75444 | 107.97840 | 26956 ft | 453 kts | 218° |
| 2026-05-08 09:34 | 11.73011 | 107.95886 | 26411 ft | 448 kts | 217° |
| 2026-05-08 09:34 | 11.70569 | 107.93934 | 25865 ft | 444 kts | 217° |
| 2026-05-08 09:35 | 11.68146 | 107.92000 | 25298 ft | 441 kts | 217° |
| 2026-05-08 09:35 | 11.65743 | 107.90084 | 24747 ft | 437 kts | 217° |
| 2026-05-08 09:35 | 11.63358 | 107.88182 | 24213 ft | 433 kts | 217° |
| 2026-05-08 09:35 | 11.60992 | 107.86295 | 23688 ft | 430 kts | 216° |
| 2026-05-08 09:36 | 11.58640 | 107.84420 | 23082 ft | 427 kts | 216° |
| 2026-05-08 09:36 | 11.56312 | 107.82564 | 22589 ft | 421 kts | 216° |
| 2026-05-08 09:36 | 11.54016 | 107.80735 | 22068 ft | 416 kts | 216° |
| 2026-05-08 09:36 | 11.51752 | 107.78931 | 21545 ft | 411 kts | 216° |
| 2026-05-08 09:37 | 11.49505 | 107.77142 | 21028 ft | 407 kts | 216° |
| 2026-05-08 09:37 | 11.47287 | 107.75377 | 20517 ft | 403 kts | 216° |
| 2026-05-08 09:37 | 11.45113 | 107.73646 | 19992 ft | 400 kts | 216° |
| 2026-05-08 09:37 | 11.42928 | 107.71908 | 19477 ft | 397 kts | 216° |
| 2026-05-08 09:38 | 11.40760 | 107.70183 | 18989 ft | 393 kts | 216° |
| 2026-05-08 09:38 | 11.38607 | 107.68470 | 18473 ft | 391 kts | 216° |
| 2026-05-08 09:38 | 11.36477 | 107.66775 | 18055 ft | 386 kts | 216° |
| 2026-05-08 09:38 | 11.35045 | 107.65636 | 17618 ft | 386 kts | 216° |
| 2026-05-08 09:39 | 11.32942 | 107.63966 | 17234 ft | 391 kts | 216° |
| 2026-05-08 09:39 | 11.30785 | 107.62253 | 16972 ft | 393 kts | 216° |
| 2026-05-08 09:39 | 11.28612 | 107.60527 | 16468 ft | 396 kts | 216° |
| 2026-05-08 09:39 | 11.26446 | 107.58806 | 15928 ft | 394 kts | 216° |
| 2026-05-08 09:40 | 11.24285 | 107.57089 | 15371 ft | 391 kts | 216° |
| 2026-05-08 09:40 | 11.22148 | 107.55392 | 14815 ft | 388 kts | 216° |
| 2026-05-08 09:40 | 11.20026 | 107.53707 | 14302 ft | 385 kts | 217° |
| 2026-05-08 09:40 | 11.17947 | 107.52058 | 13775 ft | 382 kts | 217° |
| 2026-05-08 09:41 | 11.15850 | 107.50394 | 13193 ft | 380 kts | 217° |
| 2026-05-08 09:41 | 11.13776 | 107.48749 | 12698 ft | 375 kts | 217° |
| 2026-05-08 09:41 | 11.11730 | 107.47126 | 12176 ft | 371 kts | 217° |
| 2026-05-08 09:41 | 11.09705 | 107.45520 | 11676 ft | 367 kts | 217° |
| 2026-05-08 09:42 | 11.07719 | 107.43943 | 11486 ft | 354 kts | 217° |
| 2026-05-08 09:42 | 11.05812 | 107.42429 | 11362 ft | 341 kts | 217° |
| 2026-05-08 09:42 | 11.04001 | 107.40992 | 11233 ft | 327 kts | 217° |
| 2026-05-08 09:42 | 11.02300 | 107.39520 | 11108 ft | 316 kts | 227° |
| 2026-05-08 09:43 | 11.01076 | 107.37684 | 10713 ft | 316 kts | 245° |
| 2026-05-08 09:43 | 11.00395 | 107.35568 | 10416 ft | 311 kts | 253° |
| 2026-05-08 09:43 | 10.99790 | 107.33473 | 10139 ft | 306 kts | 253° |
| 2026-05-08 09:43 | 10.99183 | 107.31401 | 9866 ft | 306 kts | 253° |
| 2026-05-08 09:44 | 10.98568 | 107.29318 | 9592 ft | 308 kts | 253° |
| 2026-05-08 09:44 | 10.97948 | 107.27229 | 9309 ft | 308 kts | 253° |
| 2026-05-08 09:44 | 10.97098 | 107.25261 | 9043 ft | 302 kts | 233° |
| 2026-05-08 09:44 | 10.95596 | 107.23868 | 8890 ft | 294 kts | 207° |
| 2026-05-08 09:45 | 10.93644 | 107.23272 | 8885 ft | 296 kts | 181° |
| 2026-05-08 09:45 | 10.91590 | 107.23438 | 8883 ft | 296 kts | 169° |
| 2026-05-08 09:45 | 10.89560 | 107.23787 | 8880 ft | 294 kts | 168° |
| 2026-05-08 09:45 | 10.87536 | 107.24123 | 8886 ft | 296 kts | 172° |
| 2026-05-08 09:46 | 10.85467 | 107.24131 | 8886 ft | 299 kts | 184° |
| 2026-05-08 09:46 | 10.83414 | 107.23802 | 8889 ft | 299 kts | 188° |
| 2026-05-08 09:46 | 10.81387 | 107.23444 | 8884 ft | 300 kts | 188° |
| 2026-05-08 09:46 | 10.79332 | 107.23084 | 8883 ft | 298 kts | 188° |
| 2026-05-08 09:47 | 10.77280 | 107.22706 | 8885 ft | 300 kts | 191° |
| 2026-05-08 09:47 | 10.75295 | 107.22037 | 8884 ft | 302 kts | 202° |
| 2026-05-08 09:47 | 10.73429 | 107.21057 | 8884 ft | 302 kts | 207° |
| 2026-05-08 09:47 | 10.71576 | 107.20050 | 8887 ft | 302 kts | 206° |
| 2026-05-08 09:48 | 10.69719 | 107.19050 | 8887 ft | 303 kts | 206° |
| 2026-05-08 09:48 | 10.67865 | 107.18025 | 8887 ft | 304 kts | 211° |
| 2026-05-08 09:48 | 10.66177 | 107.16725 | 8887 ft | 306 kts | 222° |
| 2026-05-08 09:48 | 10.64792 | 107.15091 | 8884 ft | 305 kts | 239° |
| 2026-05-08 09:49 | 10.64105 | 107.13091 | 8717 ft | 304 kts | 264° |
| 2026-05-08 09:49 | 10.64267 | 107.10979 | 8363 ft | 298 kts | 290° |
| 2026-05-08 09:49 | 10.65276 | 107.09185 | 8004 ft | 284 kts | 317° |
| 2026-05-08 09:49 | 10.66727 | 107.07929 | 7674 ft | 273 kts | 324° |
| 2026-05-08 09:50 | 10.68201 | 107.06716 | 7341 ft | 272 kts | 323° |
| 2026-05-08 09:50 | 10.69660 | 107.05493 | 7006 ft | 271 kts | 323° |
| 2026-05-08 09:50 | 10.71106 | 107.04258 | 6660 ft | 271 kts | 322° |
| 2026-05-08 09:50 | 10.72543 | 107.03020 | 6325 ft | 270 kts | 322° |
| 2026-05-08 09:51 | 10.73982 | 107.01776 | 5971 ft | 270 kts | 322° |
| 2026-05-08 09:51 | 10.75415 | 107.00537 | 5630 ft | 269 kts | 322° |
| 2026-05-08 09:51 | 10.76837 | 106.99307 | 5302 ft | 267 kts | 322° |
| 2026-05-08 09:51 | 10.78253 | 106.98085 | 4964 ft | 266 kts | 322° |
| 2026-05-08 09:52 | 10.79640 | 106.96886 | 4633 ft | 265 kts | 321° |
| 2026-05-08 09:52 | 10.81040 | 106.95675 | 4295 ft | 263 kts | 321° |
| 2026-05-08 09:52 | 10.82436 | 106.94471 | 3991 ft | 261 kts | 321° |
| 2026-05-08 09:52 | 10.83868 | 106.93238 | 3899 ft | 271 kts | 321° |
| 2026-05-08 09:53 | 10.85274 | 106.92023 | 3877 ft | 258 kts | 321° |
| 2026-05-08 09:53 | 10.86529 | 106.90829 | 3856 ft | 238 kts | 307° |
| 2026-05-08 09:53 | 10.87172 | 106.89355 | 3722 ft | 223 kts | 278° |
| 2026-05-08 09:53 | 10.87346 | 106.87830 | 3553 ft | 212 kts | 276° |
| 2026-05-08 09:54 | 10.87516 | 106.86346 | 3260 ft | 211 kts | 276° |
| 2026-05-08 09:54 | 10.87692 | 106.84874 | 2967 ft | 208 kts | 276° |
| 2026-05-08 09:54 | 10.87861 | 106.83471 | 2919 ft | 191 kts | 276° |
| 2026-05-08 09:54 | 10.87982 | 106.82169 | 2815 ft | 179 kts | 269° |
| 2026-05-08 09:55 | 10.87856 | 106.80958 | 2745 ft | 167 kts | 256° |
| 2026-05-08 09:55 | 10.87548 | 106.79858 | 2643 ft | 157 kts | 249° |
| 2026-05-08 09:55 | 10.87175 | 106.78820 | 2468 ft | 161 kts | 246° |
| 2026-05-08 09:55 | 10.86776 | 106.77757 | 2285 ft | 160 kts | 247° |
| 2026-05-08 09:56 | 10.86381 | 106.76704 | 2076 ft | 159 kts | 245° |
| 2026-05-08 09:56 | 10.85990 | 106.75662 | 1877 ft | 157 kts | 246° |
| 2026-05-08 09:56 | 10.85605 | 106.74637 | 1700 ft | 153 kts | 246° |
| 2026-05-08 09:56 | 10.85228 | 106.73630 | 1492 ft | 153 kts | 246° |
| 2026-05-08 09:57 | 10.84457 | 106.71582 | 1096 ft | 152 kts | 246° |
| 2026-05-08 09:57 | 10.84081 | 106.70582 | 910 ft | 150 kts | 246° |
| 2026-05-08 09:57 | 10.83716 | 106.69610 | 737 ft | 147 kts | 246° |
| 2026-05-08 09:58 | 10.83371 | 106.68592 | 647 ft | 160 kts | 247° |
| 2026-05-08 09:58 | 10.82999 | 106.67530 | 427 ft | 152 kts | 242° |
| 2026-05-08 09:58 | 10.82588 | 106.66564 | 212 ft | 152 kts | 243° |
| 2026-05-08 09:58 | 10.82184 | 106.65559 | 55 ft | 153 kts | 246° |
| 2026-05-08 09:59 | 10.81840 | 106.64614 | 34 ft | 118 kts | 250° |
| 2026-05-08 09:59 | 10.81654 | 106.64135 | 33 ft | 27 kts | 252° |